VRMM/MLE METAR and TAF weather

Enter ICAO airport designator
Station Type Date Time Source
VRMM METAR 2021/07/30 06:00 UTC NOAA

VRMM 300600Z 30006KT 9999 FEW018 BKN270 31/25 Q1013 NOSIG


Station Type Date Time Source
VRMM Decoded METAR 2021/07/30 06:00 UTC NOAA

Male, Maldives (VRMM) 04-12N 073-32E 2M
Jul 30, 2021 - 02:00 AM EDT / 2021.07.30 0600 UTC
Wind: from the WNW (300 degrees) at 7 MPH (6 KT):0
Visibility: greater than 7 mile(s):0
Sky conditions: mostly cloudy
Temperature: 87 F (31 C)
Heat index: 97.5 F (36.4 C):1
Dew Point: 77 F (25 C)
Relative Humidity: 70%
Pressure (altimeter): 29.91 in. Hg (1013 hPa)
ob: VRMM 300600Z 30006KT 9999 FEW018 BKN270 31/25 Q1013 NOSIG
cycle: 6

Station Type Date Time Source
VRMM TAF 2021/07/30 06:15 UTC NOAA

TAF VRMM 300500Z 3006/3112 28008KT 9999 FEW018
TEMPO 3006/3012 FEW018CB

Example: see airport list